createdAt,value
2016-10-23T00:00:41.584Z,0
2016-10-23T00:01:41.603Z,0
2016-10-23T00:02:41.634Z,0
2016-10-23T00:03:41.641Z,0
2016-10-23T00:04:41.337Z,0
2016-10-23T00:05:41.666Z,0
2016-10-23T00:06:41.699Z,0
2016-10-23T00:07:42.020Z,0
2016-10-23T00:08:42.070Z,0
2016-10-23T00:09:42.058Z,0
2016-10-23T00:10:41.760Z,0
2016-10-23T00:11:41.460Z,0
2016-10-23T00:12:42.106Z,0
2016-10-23T00:13:42.441Z,0
2016-10-23T00:14:42.144Z,0
2016-10-23T00:15:41.879Z,0
2016-10-23T00:16:42.174Z,0
2016-10-23T00:17:41.875Z,0
2016-10-23T00:18:41.582Z,0
2016-10-23T00:19:42.228Z,0
2016-10-23T00:20:42.239Z,0
2016-10-23T00:21:42.253Z,0
2016-10-23T00:22:41.954Z,0
2016-10-23T00:23:42.603Z,0
2016-10-23T00:24:41.671Z,0
2016-10-23T00:25:42.637Z,0
2016-10-23T00:26:42.023Z,0
2016-10-23T00:27:42.041Z,0
2016-10-23T00:28:42.056Z,0
2016-10-23T00:29:42.406Z,0
2016-10-23T00:30:41.830Z,0
2016-10-23T00:31:42.421Z,0
2016-10-23T00:32:42.764Z,0
2016-10-23T00:33:42.147Z,0
2016-10-23T00:34:42.785Z,0
2016-10-23T00:35:42.171Z,0
2016-10-23T00:36:41.890Z,0
2016-10-23T00:37:42.209Z,0
2016-10-23T00:38:42.538Z,0
2016-10-23T00:39:42.554Z,0
2016-10-23T00:40:42.587Z,0
2016-10-23T00:41:42.377Z,0
2016-10-23T00:42:42.603Z,0
2016-10-23T00:43:42.326Z,0
2016-10-23T00:44:42.636Z,0
2016-10-23T00:45:42.972Z,0
2016-10-23T00:46:42.360Z,0
2016-10-23T00:47:42.371Z,0
2016-10-23T00:48:42.706Z,0
2016-10-23T00:49:42.405Z,0
2016-10-23T00:50:42.422Z,0
2016-10-23T00:51:42.434Z,0
2016-10-23T00:52:42.456Z,0
2016-10-23T00:53:42.786Z,0
2016-10-23T00:54:42.173Z,0
2016-10-23T00:55:42.504Z,0
2016-10-23T00:56:43.156Z,0
2016-10-23T00:57:42.535Z,0
2016-10-23T00:58:42.670Z,0
2016-10-23T00:59:42.889Z,0
2016-10-23T01:00:43.220Z,0
2016-10-23T01:01:43.234Z,0
2016-10-23T01:02:42.305Z,0
2016-10-23T01:03:42.639Z,0
2016-10-23T01:04:43.286Z,0
2016-10-23T01:05:43.319Z,0
2016-10-23T01:06:43.006Z,0
2016-10-23T01:07:43.339Z,0
2016-10-23T01:08:42.718Z,0
2016-10-23T01:09:42.420Z,0
2016-10-23T01:10:42.758Z,0
2016-10-23T01:11:43.088Z,0
2016-10-23T01:12:43.418Z,0
2016-10-23T01:13:43.116Z,0
2016-10-23T01:14:43.452Z,0
2016-10-23T01:15:42.837Z,0
2016-10-23T01:16:43.167Z,0
2016-10-23T01:17:43.182Z,0
2016-10-23T01:18:43.199Z,0
2016-10-23T01:19:42.904Z,0
2016-10-23T01:20:42.919Z,0
2016-10-23T01:21:42.961Z,0
2016-10-23T01:22:43.267Z,0
2016-10-23T01:23:43.285Z,0
2016-10-23T01:24:42.984Z,0
2016-10-23T01:25:42.684Z,0
2016-10-23T01:26:43.331Z,0
2016-10-23T01:27:43.043Z,0
2016-10-23T01:28:43.050Z,0
2016-10-23T01:29:43.071Z,0
2016-10-23T01:30:43.395Z,0
2016-10-23T01:31:43.103Z,0
2016-10-23T01:32:43.434Z,0
2016-10-23T01:33:43.445Z,0
2016-10-23T01:34:42.841Z,0
2016-10-23T01:35:43.171Z,0
2016-10-23T01:36:43.178Z,0
2016-10-23T01:37:43.196Z,0
2016-10-23T01:38:58.119Z,0
2016-10-23T01:39:43.274Z,0
2016-10-23T01:40:43.575Z,0
2016-10-23T01:41:42.947Z,0
2016-10-23T01:42:43.610Z,0
2016-10-23T01:43:43.318Z,0
2016-10-23T01:44:43.634Z,0
2016-10-23T01:45:43.347Z,0
2016-10-23T01:46:43.665Z,0
2016-10-23T01:47:43.679Z,0
2016-10-23T01:48:43.377Z,0
2016-10-23T01:49:43.394Z,0
2016-10-23T01:50:43.408Z,0
2016-10-23T01:51:43.110Z,0
2016-10-23T01:52:44.119Z,0
2016-10-23T01:53:43.783Z,0
2016-10-23T01:54:43.482Z,0
2016-10-23T01:55:43.502Z,0
2016-10-23T01:56:43.827Z,0
2016-10-23T01:57:43.859Z,0
2016-10-23T01:58:43.858Z,0
2016-10-23T01:59:43.564Z,0
2016-10-23T02:00:43.620Z,0
2016-10-23T02:01:43.591Z,0
2016-10-23T02:02:43.615Z,0
2016-10-23T02:03:44.257Z,0
2016-10-23T02:04:43.989Z,0
2016-10-23T02:05:43.373Z,0
2016-10-23T02:06:43.670Z,0
2016-10-23T02:07:43.690Z,0
2016-10-23T02:08:44.333Z,0
2016-10-23T02:09:44.350Z,0
2016-10-23T02:10:44.049Z,0
2016-10-23T02:11:43.785Z,0
2016-10-23T02:12:44.087Z,0
2016-10-23T02:13:43.501Z,0
2016-10-23T02:14:43.802Z,0
2016-10-23T02:15:43.521Z,0
2016-10-23T02:16:43.837Z,0
2016-10-23T02:17:43.533Z,0
2016-10-23T02:18:44.186Z,0
2016-10-23T02:19:43.882Z,0
2016-10-23T02:20:44.529Z,0
2016-10-23T02:21:44.231Z,0
2016-10-23T02:22:43.930Z,0
2016-10-23T02:23:44.261Z,0
2016-10-23T02:24:43.964Z,0
2016-10-23T02:25:43.980Z,0
2016-10-23T02:26:44.355Z,0
2016-10-23T02:27:44.347Z,0
2016-10-23T02:28:44.028Z,0
2016-10-23T02:29:44.040Z,0
2016-10-23T02:30:44.055Z,0
2016-10-23T02:31:44.404Z,0
2016-10-23T02:32:43.768Z,0
2016-10-23T02:33:44.421Z,0
2016-10-23T02:34:44.121Z,0
2016-10-23T02:35:44.151Z,0
2016-10-23T02:36:44.465Z,0
2016-10-23T02:37:44.480Z,0
2016-10-23T02:38:44.500Z,0
2016-10-23T02:39:44.199Z,0
2016-10-23T02:40:44.221Z,0
2016-10-23T02:41:44.549Z,0
2016-10-23T02:42:44.879Z,0
2016-10-23T02:43:44.575Z,0
2016-10-23T02:44:43.963Z,0
2016-10-23T02:45:44.295Z,0
2016-10-23T02:46:44.316Z,0
2016-10-23T02:47:44.008Z,0
2016-10-23T02:48:44.990Z,0
2016-10-23T02:49:44.368Z,0
2016-10-23T02:50:44.055Z,0
2016-10-23T02:51:44.072Z,0
2016-10-23T02:52:44.399Z,0
2016-10-23T02:53:44.731Z,0
2016-10-23T02:54:44.745Z,0
2016-10-23T02:55:44.767Z,0
2016-10-23T02:56:44.777Z,0
2016-10-23T02:57:44.186Z,0
2016-10-23T02:58:44.492Z,0
2016-10-23T02:59:44.507Z,0
2016-10-23T03:00:44.837Z,0
2016-10-23T03:01:44.855Z,0
2016-10-23T03:02:44.559Z,0
2016-10-23T03:03:44.891Z,0
2016-10-23T03:04:44.637Z,0
2016-10-23T03:05:44.317Z,0
2016-10-23T03:06:44.304Z,0
2016-10-23T03:07:44.956Z,0
2016-10-23T03:08:45.283Z,0
2016-10-23T03:09:44.662Z,0
2016-10-23T03:10:44.682Z,0
2016-10-23T03:11:44.696Z,0
2016-10-23T03:12:44.716Z,0
2016-10-23T03:13:45.357Z,0
2016-10-23T03:14:44.745Z,0
2016-10-23T03:15:45.390Z,0
2016-10-23T03:16:45.422Z,0
2016-10-23T03:17:45.105Z,0
2016-10-23T03:18:44.489Z,0
2016-10-23T03:19:44.876Z,0
2016-10-23T03:20:44.852Z,0
2016-10-23T03:21:45.485Z,0
2016-10-23T03:22:44.588Z,0
2016-10-23T03:23:45.195Z,0
2016-10-23T03:24:45.212Z,0
2016-10-23T03:25:44.912Z,0
2016-10-23T03:26:44.925Z,0
2016-10-23T03:27:45.258Z,0
2016-10-23T03:28:44.954Z,0
2016-10-23T03:29:44.975Z,0
2016-10-23T03:30:44.671Z,0
2016-10-23T03:31:45.322Z,0
2016-10-23T03:32:45.336Z,0
2016-10-23T03:33:45.034Z,0
2016-10-23T03:34:45.048Z,0
2016-10-23T03:35:45.064Z,0
2016-10-23T03:36:45.081Z,0
2016-10-23T03:37:45.410Z,0
2016-10-23T03:38:44.794Z,0
2016-10-23T03:39:45.760Z,0
2016-10-23T03:40:45.457Z,0
2016-10-23T03:41:45.510Z,0
2016-10-23T03:42:45.527Z,0
2016-10-23T03:43:45.504Z,0
2016-10-23T03:44:45.203Z,0
2016-10-23T03:45:45.847Z,0
2016-10-23T03:46:45.553Z,0
2016-10-23T03:47:45.569Z,0
2016-10-23T03:48:45.903Z,0
2016-10-23T03:49:45.631Z,0
2016-10-23T03:50:45.614Z,0
2016-10-23T03:51:45.940Z,0
2016-10-23T03:52:45.367Z,0
2016-10-23T03:53:45.659Z,0
2016-10-23T03:54:45.683Z,0
2016-10-23T03:55:45.690Z,0
2016-10-23T03:56:45.391Z,0
2016-10-23T03:57:45.404Z,0
2016-10-23T03:58:45.424Z,0
2016-10-23T03:59:45.751Z,0
2016-10-23T04:00:45.213Z,0
2016-10-23T04:01:45.792Z,0
2016-10-23T04:02:45.805Z,0
2016-10-23T04:03:45.846Z,0
2016-10-23T04:04:45.828Z,0
2016-10-23T04:05:46.164Z,0
2016-10-23T04:06:45.542Z,0
2016-10-23T04:07:45.297Z,0
2016-10-23T04:08:45.891Z,0
2016-10-23T04:09:45.272Z,0
2016-10-23T04:10:45.295Z,0
2016-10-23T04:11:45.928Z,0
2016-10-23T04:12:46.273Z,0
2016-10-23T04:13:45.970Z,0
2016-10-23T04:14:45.349Z,0
2016-10-23T04:15:45.996Z,0
2016-10-23T04:16:46.340Z,0
2016-10-23T04:17:45.712Z,0
2016-10-23T04:18:46.364Z,0
2016-10-23T04:19:45.736Z,0
2016-10-23T04:20:46.073Z,0
2016-10-23T04:21:46.121Z,0
2016-10-23T04:22:45.788Z,0
2016-10-23T04:23:46.116Z,0
2016-10-23T04:24:45.816Z,0
2016-10-23T04:25:45.531Z,0
2016-10-23T04:26:46.159Z,0
2016-10-23T04:27:46.181Z,0
2016-10-23T04:28:46.192Z,0
2016-10-23T04:29:46.208Z,0
2016-10-23T04:30:46.551Z,0
2016-10-23T04:31:45.923Z,0
2016-10-23T04:32:46.253Z,0
2016-10-23T04:33:46.581Z,0
2016-10-23T04:34:46.303Z,0
2016-10-23T04:35:46.014Z,0
2016-10-23T04:36:46.015Z,0
2016-10-23T04:37:46.332Z,0
2016-10-23T04:38:46.368Z,0
2016-10-23T04:39:46.067Z,0
2016-10-23T04:40:46.376Z,0
2016-10-23T04:41:46.074Z,0
2016-10-23T04:42:46.097Z,0
2016-10-23T04:43:46.439Z,0
2016-10-23T04:44:46.443Z,0
2016-10-23T04:45:46.776Z,0
2016-10-23T04:46:46.155Z,0
2016-10-23T04:47:46.799Z,0
2016-10-23T04:48:46.184Z,0
2016-10-23T04:49:46.524Z,0
2016-10-23T04:50:46.276Z,0
2016-10-23T04:51:45.913Z,0
2016-10-23T04:52:46.562Z,0
2016-10-23T04:53:46.273Z,0
2016-10-23T04:54:45.976Z,0
2016-10-23T04:55:46.604Z,0
2016-10-23T04:56:46.303Z,0
2016-10-23T04:57:46.954Z,0
2016-10-23T04:58:46.335Z,0
2016-10-23T04:59:46.348Z,0
2016-10-23T05:00:46.368Z,0
2016-10-23T05:01:46.381Z,0
2016-10-23T05:02:46.103Z,0
2016-10-23T05:03:46.733Z,0
2016-10-23T05:04:46.146Z,0
2016-10-23T05:05:46.444Z,0
2016-10-23T05:06:46.456Z,0
2016-10-23T05:07:46.471Z,0
2016-10-23T05:08:46.821Z,0
2016-10-23T05:09:46.506Z,0
2016-10-23T05:10:46.519Z,0
2016-10-23T05:11:47.181Z,0
2016-10-23T05:12:47.187Z,0
2016-10-23T05:13:46.246Z,0
2016-10-23T05:14:46.925Z,0
2016-10-23T05:15:46.619Z,0
2016-10-23T05:16:46.615Z,0
2016-10-23T05:17:47.260Z,0
2016-10-23T05:18:46.961Z,0
2016-10-23T05:19:46.658Z,0
2016-10-23T05:20:46.992Z,0
2016-10-23T05:21:46.684Z,0
2016-10-23T05:22:47.025Z,0
2016-10-23T05:23:46.718Z,0
2016-10-23T05:24:46.414Z,0
2016-10-23T05:25:47.408Z,0
2016-10-23T05:26:47.087Z,0
2016-10-23T05:27:47.099Z,0
2016-10-23T05:28:47.114Z,0
2016-10-23T05:29:46.818Z,0
2016-10-23T05:30:47.143Z,0
2016-10-23T05:31:47.159Z,0
2016-10-23T05:32:47.175Z,0
2016-10-23T05:33:47.214Z,0
2016-10-23T05:34:47.521Z,4
2016-10-23T05:35:47.219Z,0
2016-10-23T05:36:46.923Z,0
2016-10-23T05:37:47.253Z,0
2016-10-23T05:38:46.974Z,4
2016-10-23T05:39:46.968Z,4
2016-10-23T05:40:47.638Z,0
2016-10-23T05:41:47.668Z,0
2016-10-23T05:42:47.667Z,0
2016-10-23T05:43:47.346Z,0
2016-10-23T05:44:46.731Z,0
2016-10-23T05:45:47.378Z,0
2016-10-23T05:46:47.390Z,0
2016-10-23T05:47:46.788Z,0
2016-10-23T05:48:47.118Z,0
2016-10-23T05:49:47.131Z,0
2016-10-23T05:50:47.138Z,4
2016-10-23T05:51:47.158Z,4
2016-10-23T05:52:47.528Z,4
2016-10-23T05:53:47.193Z,4
2016-10-23T05:54:47.545Z,4
2016-10-23T05:55:47.217Z,4
2016-10-23T05:56:47.234Z,4
2016-10-23T05:57:47.249Z,4
2016-10-23T05:58:47.897Z,8
2016-10-23T05:59:47.595Z,4
2016-10-23T06:00:47.614Z,8
2016-10-23T06:01:47.627Z,4
2016-10-23T06:02:47.033Z,8
2016-10-23T06:03:47.973Z,8
2016-10-23T06:04:47.398Z,8
2016-10-23T06:05:47.690Z,8
2016-10-23T06:06:47.704Z,12
2016-10-23T06:07:48.038Z,12
2016-10-23T06:08:47.738Z,12
2016-10-23T06:09:47.438Z,12
2016-10-23T06:10:47.766Z,12
2016-10-23T06:11:47.466Z,12
2016-10-23T06:12:47.484Z,12
2016-10-23T06:13:47.816Z,12
2016-10-23T06:14:48.145Z,12
2016-10-23T06:15:47.567Z,12
2016-10-23T06:16:47.546Z,12
2016-10-23T06:17:47.568Z,12
2016-10-23T06:18:47.599Z,12
2016-10-23T06:19:47.624Z,12
2016-10-23T06:20:47.966Z,16
2016-10-23T06:21:47.308Z,16
2016-10-23T06:22:48.273Z,16
2016-10-23T06:23:47.657Z,16
2016-10-23T06:24:47.984Z,20
2016-10-23T06:25:47.687Z,20
2016-10-23T06:26:48.023Z,24
2016-10-23T06:27:47.720Z,24
2016-10-23T06:28:48.052Z,28
2016-10-23T06:29:47.433Z,32
2016-10-23T06:30:48.083Z,32
2016-10-23T06:31:47.781Z,40
2016-10-23T06:32:47.807Z,44
2016-10-23T06:33:47.814Z,56
2016-10-23T06:34:47.868Z,60
2016-10-23T06:35:47.541Z,64
2016-10-23T06:36:47.873Z,60
2016-10-23T06:37:48.193Z,56
2016-10-23T06:38:48.208Z,56
2016-10-23T06:39:47.915Z,56
2016-10-23T06:40:48.237Z,52
2016-10-23T06:41:48.260Z,52
2016-10-23T06:42:47.962Z,52
2016-10-23T06:43:48.603Z,56
2016-10-23T06:44:48.327Z,60
2016-10-23T06:45:47.706Z,76
2016-10-23T06:46:47.725Z,80
2016-10-23T06:47:48.366Z,100
2016-10-23T06:48:48.057Z,124
2016-10-23T06:49:48.390Z,152
2016-10-23T06:50:47.772Z,196
2016-10-23T06:51:47.786Z,220
2016-10-23T06:52:48.116Z,224
2016-10-23T06:53:48.449Z,232
2016-10-23T06:54:48.149Z,220
2016-10-23T06:55:47.851Z,204
2016-10-23T06:56:48.498Z,180
2016-10-23T06:57:47.892Z,168
2016-10-23T06:58:48.555Z,164
2016-10-23T06:59:48.546Z,184
2016-10-23T07:00:48.561Z,196
2016-10-23T07:01:48.605Z,224
2016-10-23T07:02:48.607Z,232
2016-10-23T07:03:48.313Z,232
2016-10-23T07:04:48.313Z,228
2016-10-23T07:05:48.352Z,236
2016-10-23T07:06:48.046Z,240
2016-10-23T07:07:48.054Z,228
2016-10-23T07:08:48.377Z,208
2016-10-23T07:09:48.731Z,216
2016-10-23T07:10:48.125Z,184
2016-10-23T07:11:48.422Z,196
2016-10-23T07:12:48.555Z,136
2016-10-23T07:13:48.456Z,132
2016-10-23T07:14:48.176Z,156
2016-10-23T07:15:48.515Z,256
2016-10-23T07:16:48.193Z,248
2016-10-23T07:17:48.526Z,164
2016-10-23T07:18:48.855Z,136
2016-10-23T07:19:48.557Z,108
2016-10-23T07:20:48.255Z,76
2016-10-23T07:21:48.592Z,72
2016-10-23T07:22:48.605Z,72
2016-10-23T07:23:48.975Z,76
2016-10-23T07:24:48.954Z,84
2016-10-23T07:25:48.973Z,96
2016-10-23T07:26:48.986Z,108
2016-10-23T07:27:48.423Z,112
2016-10-23T07:28:48.388Z,112
2016-10-23T07:29:48.413Z,124
2016-10-23T07:30:48.843Z,128
2016-10-23T07:31:49.078Z,108
2016-10-23T07:32:48.781Z,160
2016-10-23T07:33:48.469Z,128
2016-10-23T07:34:49.135Z,148
2016-10-23T07:35:48.830Z,112
2016-10-23T07:36:49.149Z,108
2016-10-23T07:37:49.167Z,120
2016-10-23T07:38:49.180Z,140
2016-10-23T07:39:48.885Z,168
2016-10-23T07:40:48.897Z,228
2016-10-23T07:41:48.935Z,668
2016-10-23T07:42:48.940Z,356
2016-10-23T07:43:49.260Z,1180
2016-10-23T07:44:49.279Z,228
2016-10-23T07:45:49.345Z,212
2016-10-23T07:46:49.628Z,220
2016-10-23T07:47:49.329Z,224
2016-10-23T07:48:49.068Z,244
2016-10-23T07:49:48.733Z,248
2016-10-23T07:50:49.065Z,292
2016-10-23T07:51:49.405Z,384
2016-10-23T07:52:49.101Z,316
2016-10-23T07:53:48.793Z,296
2016-10-23T07:54:49.760Z,324
2016-10-23T07:55:49.147Z,400
2016-10-23T07:56:49.161Z,668
2016-10-23T07:57:48.870Z,944
2016-10-23T07:58:49.509Z,1176
2016-10-23T07:59:49.214Z,1024
2016-10-23T08:00:49.235Z,888
2016-10-23T08:01:48.926Z,608
2016-10-23T08:02:49.572Z,516
2016-10-23T08:03:49.632Z,548
2016-10-23T08:04:49.297Z,1568
2016-10-23T08:05:49.660Z,788
2016-10-23T08:06:49.342Z,1084
2016-10-23T08:07:49.665Z,1588
2016-10-23T08:08:49.686Z,1168
2016-10-23T08:09:50.022Z,1348
2016-10-23T08:10:49.399Z,1392
2016-10-23T08:11:49.726Z,1252
2016-10-23T08:12:50.063Z,860
2016-10-23T08:13:49.762Z,484
2016-10-23T08:14:49.513Z,576
2016-10-23T08:15:49.535Z,852
2016-10-23T08:16:49.185Z,768
2016-10-23T08:17:49.836Z,1476
2016-10-23T08:18:49.538Z,2136
2016-10-23T08:19:49.556Z,2624
2016-10-23T08:20:49.889Z,868
2016-10-23T08:21:49.905Z,1136
2016-10-23T08:22:49.926Z,712
2016-10-23T08:23:49.316Z,2552
2016-10-23T08:24:49.962Z,2040
2016-10-23T08:25:49.660Z,1320
2016-10-23T08:26:49.997Z,1044
2016-10-23T08:27:50.325Z,1100
2016-10-23T08:28:49.714Z,736
2016-10-23T08:29:50.391Z,688
2016-10-23T08:30:50.067Z,912
2016-10-23T08:31:50.397Z,932
2016-10-23T08:32:50.414Z,848
2016-10-23T08:33:50.446Z,720
2016-10-23T08:34:49.505Z,764
2016-10-23T08:35:49.525Z,732
2016-10-23T08:36:49.860Z,748
2016-10-23T08:37:49.876Z,844
2016-10-23T08:38:49.893Z,960
2016-10-23T08:39:49.920Z,1092
2016-10-23T08:40:50.570Z,1052
2016-10-23T08:41:49.991Z,984
2016-10-23T08:42:50.606Z,1040
2016-10-23T08:43:49.985Z,896
2016-10-23T08:44:49.687Z,732
2016-10-23T08:45:49.739Z,700
2016-10-23T08:46:49.723Z,692
2016-10-23T08:47:50.415Z,672
2016-10-23T08:48:50.411Z,640
2016-10-23T08:49:50.097Z,628
2016-10-23T08:50:49.797Z,632
2016-10-23T08:51:50.132Z,704
2016-10-23T08:52:50.473Z,680
2016-10-23T08:53:50.490Z,664
2016-10-23T08:54:50.500Z,664
2016-10-23T08:55:50.532Z,672
2016-10-23T08:56:50.232Z,872
2016-10-23T08:57:50.243Z,896
2016-10-23T08:58:49.949Z,952
2016-10-23T08:59:50.285Z,848
2016-10-23T09:00:50.621Z,788
2016-10-23T09:01:50.354Z,752
2016-10-23T09:02:50.026Z,756
2016-10-23T09:03:50.678Z,692
2016-10-23T09:04:50.710Z,632
2016-10-23T09:05:50.712Z,684
2016-10-23T09:06:50.414Z,700
2016-10-23T09:07:50.799Z,720
2016-10-23T09:08:50.138Z,724
2016-10-23T09:09:50.826Z,724
2016-10-23T09:10:50.486Z,764
2016-10-23T09:11:50.512Z,768
2016-10-23T09:12:50.903Z,820
2016-10-23T09:13:50.544Z,860
2016-10-23T09:14:50.883Z,1040
2016-10-23T09:15:50.274Z,1424
2016-10-23T09:16:50.612Z,1352
2016-10-23T09:17:50.686Z,1208
2016-10-23T09:18:50.961Z,1020
2016-10-23T09:19:50.991Z,892
2016-10-23T09:20:50.681Z,956
2016-10-23T09:21:51.019Z,1172
2016-10-23T09:22:51.039Z,1152
2016-10-23T09:23:50.750Z,1200
2016-10-23T09:24:51.129Z,1056
2016-10-23T09:25:50.501Z,1548
2016-10-23T09:26:50.807Z,2300
2016-10-23T09:27:50.818Z,488
2016-10-23T09:28:50.847Z,444
2016-10-23T09:29:50.861Z,488
2016-10-23T09:30:51.192Z,460
2016-10-23T09:31:51.211Z,516
2016-10-23T09:32:51.289Z,1048
2016-10-23T09:33:50.643Z,1640
2016-10-23T09:34:51.286Z,888
2016-10-23T09:35:51.295Z,580
2016-10-23T09:36:51.313Z,516
2016-10-23T09:37:51.340Z,496
2016-10-23T09:38:51.044Z,704
2016-10-23T09:39:51.376Z,492
2016-10-23T09:40:51.434Z,472
2016-10-23T09:41:51.731Z,524
2016-10-23T09:42:51.178Z,496
2016-10-23T09:43:51.140Z,600
2016-10-23T09:44:51.163Z,596
2016-10-23T09:45:51.497Z,620
2016-10-23T09:46:51.227Z,644
2016-10-23T09:47:50.910Z,676
2016-10-23T09:48:51.561Z,1520
2016-10-23T09:49:51.612Z,1484
2016-10-23T09:50:51.289Z,1716
2016-10-23T09:51:51.620Z,1656
2016-10-23T09:52:51.656Z,1488
2016-10-23T09:53:51.665Z,1116
2016-10-23T09:54:51.684Z,440
2016-10-23T09:55:51.699Z,1108
2016-10-23T09:56:51.088Z,1172
2016-10-23T09:57:51.427Z,1352
2016-10-23T09:58:51.768Z,1100
2016-10-23T09:59:51.156Z,1412
2016-10-23T10:00:51.175Z,1304
2016-10-23T10:01:51.513Z,1372
2016-10-23T10:02:51.849Z,1404
2016-10-23T10:03:51.557Z,1540
2016-10-23T10:04:51.897Z,1428
2016-10-23T10:05:51.600Z,672
2016-10-23T10:06:52.254Z,712
2016-10-23T10:07:51.347Z,792
2016-10-23T10:08:51.979Z,540
2016-10-23T10:09:51.367Z,604
2016-10-23T10:10:51.712Z,964
2016-10-23T10:11:51.409Z,752
2016-10-23T10:12:51.793Z,680
2016-10-23T10:13:52.093Z,636
2016-10-23T10:14:52.112Z,1172
2016-10-23T10:15:52.130Z,1524
2016-10-23T10:16:52.163Z,1400
2016-10-23T10:17:51.592Z,1352
2016-10-23T10:18:52.200Z,1292
2016-10-23T10:19:52.247Z,1292
2016-10-23T10:20:51.929Z,932
2016-10-23T10:21:51.945Z,1332
2016-10-23T10:22:52.339Z,808
2016-10-23T10:23:51.674Z,892
2016-10-23T10:24:52.011Z,988
2016-10-23T10:25:52.033Z,1356
2016-10-23T10:26:52.058Z,1104
2016-10-23T10:27:52.710Z,560
2016-10-23T10:28:52.415Z,720
2016-10-23T10:29:52.142Z,528
2016-10-23T10:30:52.170Z,1384
2016-10-23T10:31:52.806Z,1340
2016-10-23T10:32:52.502Z,1332
2016-10-23T10:33:52.217Z,684
2016-10-23T10:34:52.235Z,1556
2016-10-23T10:35:52.280Z,1316
2016-10-23T10:36:52.591Z,804
2016-10-23T10:37:52.306Z,788
2016-10-23T10:38:52.061Z,1308
2016-10-23T10:39:52.666Z,932
2016-10-23T10:40:52.056Z,836
2016-10-23T10:41:52.711Z,1368
2016-10-23T10:42:52.423Z,1256
2016-10-23T10:43:52.440Z,544
2016-10-23T10:44:52.461Z,1360
2016-10-23T10:45:52.487Z,1260
2016-10-23T10:46:52.509Z,568
2016-10-23T10:47:52.854Z,1576
2016-10-23T10:48:52.240Z,1580
2016-10-23T10:49:52.578Z,1364
2016-10-23T10:50:52.615Z,1148
2016-10-23T10:51:52.936Z,1308
2016-10-23T10:52:52.962Z,1260
2016-10-23T10:53:52.981Z,1124
2016-10-23T10:54:53.025Z,1108
2016-10-23T10:55:52.752Z,1116
2016-10-23T10:56:52.423Z,1060
2016-10-23T10:57:53.078Z,1056
2016-10-23T10:58:52.787Z,1036
2016-10-23T10:59:53.124Z,1016
2016-10-23T11:00:53.149Z,1016
2016-10-23T11:01:53.184Z,1012
2016-10-23T11:02:52.880Z,1012
2016-10-23T11:03:52.588Z,848
2016-10-23T11:04:52.924Z,992
2016-10-23T11:05:53.274Z,1028
2016-10-23T11:06:52.997Z,1008
2016-10-23T11:07:53.000Z,1028
2016-10-23T11:08:53.020Z,996
2016-10-23T11:09:53.092Z,988
2016-10-23T11:10:52.782Z,972
2016-10-23T11:11:53.101Z,996
2016-10-23T11:12:53.117Z,956
2016-10-23T11:13:53.155Z,960
2016-10-23T11:14:54.312Z,964
2016-10-23T11:15:53.196Z,964
2016-10-23T11:16:53.229Z,964
2016-10-23T11:17:53.553Z,964
2016-10-23T11:18:53.279Z,964
2016-10-23T11:19:52.982Z,916
2016-10-23T11:20:52.990Z,936
2016-10-23T11:21:53.035Z,956
2016-10-23T11:22:54.048Z,944
2016-10-23T11:23:54.019Z,940
2016-10-23T11:24:53.588Z,940
2016-10-23T11:25:53.886Z,948
2016-10-23T11:26:54.463Z,940
2016-10-23T11:27:53.809Z,960
2016-10-23T11:28:54.137Z,956
2016-10-23T11:29:53.555Z,968
2016-10-23T11:30:53.879Z,964
2016-10-23T11:31:53.592Z,968
2016-10-23T11:32:54.240Z,980
2016-10-23T11:33:53.643Z,692
2016-10-23T11:34:53.652Z,692
2016-10-23T11:35:53.677Z,844
2016-10-23T11:36:54.025Z,636
2016-10-23T11:37:54.378Z,1064
2016-10-23T11:38:54.071Z,664
2016-10-23T11:39:54.433Z,732
2016-10-23T11:40:54.542Z,816
2016-10-23T11:41:53.563Z,940
2016-10-23T11:42:54.191Z,964
2016-10-23T11:44:54.544Z,924
2016-10-23T11:45:53.931Z,920
2016-10-23T11:46:54.231Z,912
2016-10-23T11:47:53.658Z,908
2016-10-23T11:48:55.284Z,900
2016-10-23T11:49:54.353Z,892
2016-10-23T11:50:54.790Z,904
2016-10-23T11:51:54.752Z,896
2016-10-23T11:52:55.346Z,900
2016-10-23T11:53:55.160Z,912
2016-10-23T11:54:54.976Z,920
2016-10-23T11:55:55.695Z,924
2016-10-23T11:56:54.998Z,948
2016-10-23T11:57:55.307Z,944
2016-10-23T11:58:54.412Z,944
2016-10-23T11:59:54.521Z,412
2016-10-23T12:00:54.418Z,384
2016-10-23T12:01:54.701Z,296
2016-10-23T12:02:54.476Z,352
2016-10-23T12:03:54.701Z,980
2016-10-23T12:04:54.737Z,936
2016-10-23T12:05:54.754Z,900
2016-10-23T12:06:54.766Z,876
2016-10-23T12:07:54.802Z,860
2016-10-23T12:08:54.820Z,836
2016-10-23T12:09:54.536Z,828
2016-10-23T12:10:54.555Z,836
2016-10-23T12:11:54.902Z,812
2016-10-23T12:12:54.613Z,808
2016-10-23T12:13:54.629Z,804
2016-10-23T12:14:54.341Z,816
2016-10-23T12:15:54.361Z,812
2016-10-23T12:17:09.915Z,796
2016-10-23T12:17:54.415Z,800
2016-10-23T12:18:54.764Z,824
2016-10-23T12:19:55.422Z,816
2016-10-23T12:20:55.447Z,808
2016-10-23T12:21:54.849Z,816
2016-10-23T12:22:55.194Z,808
2016-10-23T12:23:55.199Z,552
2016-10-23T12:24:54.614Z,220
2016-10-23T12:25:55.276Z,208
2016-10-23T12:26:55.276Z,372
2016-10-23T12:27:54.999Z,736
2016-10-23T12:28:55.658Z,644
2016-10-23T12:29:55.094Z,860
2016-10-23T12:30:55.390Z,952
2016-10-23T12:31:55.417Z,616
2016-10-23T12:32:56.006Z,412
2016-10-23T12:33:54.833Z,336
2016-10-23T12:34:55.167Z,336
2016-10-23T12:35:55.184Z,392
2016-10-23T12:36:55.856Z,436
2016-10-23T12:37:55.562Z,400
2016-10-23T12:38:54.958Z,684
2016-10-23T12:39:55.293Z,900
2016-10-23T12:40:55.647Z,884
2016-10-23T12:41:55.682Z,708
2016-10-23T12:42:55.365Z,444
2016-10-23T12:43:55.390Z,620
2016-10-23T12:44:55.434Z,888
2016-10-23T12:45:55.644Z,376
2016-10-23T12:46:55.478Z,272
2016-10-23T12:47:55.811Z,324
2016-10-23T12:48:55.833Z,240
2016-10-23T12:49:55.231Z,192
2016-10-23T12:50:55.571Z,180
2016-10-23T12:51:55.911Z,172
2016-10-23T12:52:55.947Z,172
2016-10-23T12:53:55.975Z,168
2016-10-23T12:54:55.994Z,176
2016-10-23T12:55:56.345Z,188
2016-10-23T12:56:56.048Z,196
2016-10-23T12:57:56.063Z,208
2016-10-23T12:58:56.415Z,212
2016-10-23T12:59:56.136Z,208
2016-10-23T13:00:55.612Z,200
2016-10-23T13:01:55.576Z,192
2016-10-23T13:02:55.901Z,180
2016-10-23T13:03:56.220Z,176
2016-10-23T13:04:55.954Z,176
2016-10-23T13:05:55.963Z,180
2016-10-23T13:06:56.009Z,184
2016-10-23T13:07:56.027Z,188
2016-10-23T13:08:56.365Z,204
2016-10-23T13:09:56.384Z,220
2016-10-23T13:10:56.469Z,232
2016-10-23T13:11:55.792Z,236
2016-10-23T13:12:56.188Z,232
2016-10-23T13:13:56.162Z,224
2016-10-23T13:14:56.186Z,216
2016-10-23T13:15:56.202Z,204
2016-10-23T13:16:56.547Z,196
2016-10-23T13:17:56.271Z,184
2016-10-23T13:18:56.598Z,172
2016-10-23T13:19:56.994Z,152
2016-10-23T13:21:11.552Z,132
2016-10-23T13:21:56.035Z,120
2016-10-23T13:22:56.833Z,112
2016-10-23T13:23:56.449Z,104
2016-10-23T13:24:56.761Z,100
2016-10-23T13:25:56.767Z,92
2016-10-23T13:26:57.103Z,84
2016-10-23T13:27:56.856Z,76
2016-10-23T13:28:56.855Z,72
2016-10-23T13:29:56.546Z,72
2016-10-23T13:30:57.241Z,72
2016-10-23T13:31:56.915Z,76
2016-10-23T13:32:57.256Z,84
2016-10-23T13:33:56.961Z,84
2016-10-23T13:34:56.674Z,84
2016-10-23T13:35:56.736Z,80
2016-10-23T13:36:57.536Z,76
2016-10-23T13:37:56.791Z,76
2016-10-23T13:38:56.785Z,76
2016-10-23T13:39:57.434Z,76
2016-10-23T13:40:56.503Z,72
2016-10-23T13:41:57.474Z,72
2016-10-23T13:42:57.530Z,68
2016-10-23T13:43:57.520Z,68
2016-10-23T13:44:57.223Z,64
2016-10-23T13:45:57.249Z,60
2016-10-23T13:46:57.283Z,60
2016-10-23T13:47:57.619Z,56
2016-10-23T13:48:57.645Z,52
2016-10-23T13:49:57.356Z,52
2016-10-23T13:50:56.740Z,48
2016-10-23T13:51:56.787Z,48
2016-10-23T13:52:57.151Z,48
2016-10-23T13:53:56.833Z,52
2016-10-23T13:54:57.521Z,52
2016-10-23T13:55:57.506Z,52
2016-10-23T13:56:57.211Z,52
2016-10-23T13:57:57.341Z,56
2016-10-23T13:58:57.604Z,60
2016-10-23T13:59:56.952Z,64
2016-10-23T14:00:57.405Z,68
2016-10-23T14:01:57.325Z,68
2016-10-23T14:02:57.710Z,60
2016-10-23T14:03:57.370Z,56
2016-10-23T14:04:57.413Z,52
2016-10-23T14:05:57.741Z,52
2016-10-23T14:06:57.777Z,56
2016-10-23T14:07:57.469Z,64
2016-10-23T14:08:57.846Z,72
2016-10-23T14:09:57.922Z,80
2016-10-23T14:10:57.259Z,84
2016-10-23T14:11:57.592Z,84
2016-10-23T14:12:58.207Z,88